createdAt,value
2022-09-16T00:00:51.425Z,24.72
2022-09-16T00:03:18.999Z,24.73
2022-09-16T00:05:48.590Z,24.74
2022-09-16T00:08:16.705Z,24.70
2022-09-16T00:10:44.139Z,24.64
2022-09-16T00:13:12.538Z,24.00
2022-09-16T00:15:46.432Z,23.57
2022-09-16T00:18:14.971Z,23.19
2022-09-16T00:20:50.787Z,23.09
2022-09-16T00:23:19.596Z,23.14
2022-09-16T00:25:55.945Z,23.32
2022-09-16T00:28:23.550Z,23.37
2022-09-16T00:30:50.858Z,22.95
2022-09-16T00:33:18.587Z,22.81
2022-09-16T00:35:46.271Z,22.70
2022-09-16T00:38:13.946Z,22.48
2022-09-16T00:40:49.256Z,22.59
2022-09-16T00:43:18.855Z,22.44
2022-09-16T00:45:56.854Z,22.40
2022-09-16T00:48:26.558Z,22.32
2022-09-16T00:51:04.137Z,22.38
2022-09-16T00:53:46.594Z,22.50
2022-09-16T00:56:17.169Z,22.63
2022-09-16T00:58:47.208Z,22.68
2022-09-16T01:01:14.752Z,22.70
2022-09-16T01:03:54.364Z,23.00
2022-09-16T01:06:23.092Z,22.98
2022-09-16T01:08:50.725Z,22.87
2022-09-16T01:11:17.753Z,22.72
2022-09-16T01:13:46.041Z,22.54
2022-09-16T01:16:22.862Z,22.39
2022-09-16T01:19:10.470Z,22.32
2022-09-16T01:22:12.256Z,22.34
2022-09-16T01:25:16.746Z,22.11
2022-09-16T01:27:54.299Z,22.01
2022-09-16T01:30:48.759Z,22.12
2022-09-16T01:33:19.306Z,22.23
2022-09-16T01:36:11.216Z,22.28
2022-09-16T01:38:50.234Z,22.47
2022-09-16T01:41:17.050Z,22.56
2022-09-16T01:43:57.106Z,22.52
2022-09-16T01:46:36.306Z,22.48
2022-09-16T01:49:16.613Z,22.40
2022-09-16T01:51:43.443Z,22.28
2022-09-16T01:54:32.912Z,22.26
2022-09-16T01:57:03.496Z,22.17
2022-09-16T01:59:54.625Z,22.05
2022-09-16T02:02:36.089Z,22.30
2022-09-16T02:05:08.964Z,22.40
2022-09-16T02:07:40.248Z,22.59
2022-09-16T02:10:35.707Z,22.78
2022-09-16T02:13:10.946Z,22.93
2022-09-16T02:15:40.777Z,23.01
2022-09-16T02:18:12.369Z,23.16
2022-09-16T02:20:45.710Z,23.29
2022-09-16T02:23:19.976Z,23.33
2022-09-16T02:25:49.216Z,23.41
2022-09-16T02:28:27.242Z,23.45
2022-09-16T02:30:57.808Z,23.50
2022-09-16T02:33:32.054Z,23.47
2022-09-16T02:36:02.138Z,23.42
2022-09-16T02:38:46.307Z,23.47
2022-09-16T02:41:15.028Z,23.42
2022-09-16T02:43:42.909Z,23.45
2022-09-16T02:46:39.919Z,23.52
2022-09-16T02:49:10.890Z,23.51
2022-09-16T02:52:02.996Z,23.54
2022-09-16T02:54:48.543Z,23.49
2022-09-16T02:57:15.846Z,23.44
2022-09-16T02:59:43.249Z,23.45
2022-09-16T03:02:10.338Z,23.55
2022-09-16T03:04:37.367Z,23.57
2022-09-16T03:07:07.113Z,23.59
2022-09-16T03:09:37.838Z,23.64
2022-09-16T03:12:17.328Z,23.66
2022-09-16T03:15:02.527Z,23.65
2022-09-16T03:18:03.567Z,23.68
2022-09-16T03:20:45.825Z,23.65
2022-09-16T03:23:49.927Z,23.78
2022-09-16T03:26:55.354Z,23.70
2022-09-16T03:29:54.984Z,23.81
2022-09-16T03:32:27.870Z,23.81
2022-09-16T03:35:01.958Z,23.92
2022-09-16T03:37:34.550Z,23.90
2022-09-16T03:40:09.670Z,24.06
2022-09-16T03:42:40.160Z,24.06
2022-09-16T03:45:08.543Z,24.12
2022-09-16T03:47:35.538Z,24.12
2022-09-16T03:50:03.784Z,24.03
2022-09-16T03:52:30.789Z,24.04
2022-09-16T03:54:57.802Z,24.02
2022-09-16T03:57:24.844Z,24.05
2022-09-16T03:59:51.861Z,24.06
2022-09-16T04:02:18.809Z,24.04
2022-09-16T04:04:46.208Z,23.87
2022-09-16T04:07:13.122Z,23.47
2022-09-16T04:09:40.014Z,23.39
2022-09-16T04:12:07.767Z,23.13
2022-09-16T04:14:36.072Z,23.00
2022-09-16T04:17:03.691Z,22.93
2022-09-16T04:19:31.314Z,22.88
2022-09-16T04:21:58.204Z,22.95
2022-09-16T04:24:25.398Z,23.07
2022-09-16T04:26:52.462Z,23.19
2022-09-16T04:29:19.388Z,23.23
2022-09-16T04:31:46.303Z,23.31
2022-09-16T04:34:13.386Z,23.42
2022-09-16T04:36:40.654Z,23.53
2022-09-16T04:39:07.581Z,23.63
2022-09-16T04:41:34.513Z,23.72
2022-09-16T04:44:01.742Z,23.89
2022-09-16T04:46:30.546Z,23.94
2022-09-16T04:48:57.999Z,24.07
2022-09-16T04:51:27.493Z,24.17
2022-09-16T04:53:56.705Z,24.35
2022-09-16T04:56:31.610Z,24.43
2022-09-16T04:59:04.060Z,24.52
2022-09-16T05:01:33.454Z,24.54
2022-09-16T05:04:03.012Z,24.69
2022-09-16T05:06:35.832Z,24.78
2022-09-16T05:09:03.274Z,24.97
2022-09-16T05:11:34.034Z,25.16
2022-09-16T05:14:02.294Z,25.22
2022-09-16T05:16:29.802Z,25.27
2022-09-16T05:18:59.937Z,25.49
2022-09-16T05:21:28.608Z,25.66
2022-09-16T05:23:59.747Z,25.79
2022-09-16T05:26:29.057Z,25.88
2022-09-16T05:28:56.139Z,25.89
2022-09-16T05:31:28.471Z,26.13
2022-09-16T05:34:04.534Z,26.14
2022-09-16T05:36:33.990Z,26.19
2022-09-16T05:39:22.087Z,26.22
2022-09-16T05:41:49.949Z,26.27
2022-09-16T05:44:16.841Z,26.44
2022-09-16T05:46:44.007Z,26.60
2022-09-16T05:49:11.610Z,26.91
2022-09-16T05:51:40.372Z,27.00
2022-09-16T05:54:07.666Z,27.06
2022-09-16T05:56:34.932Z,27.27
2022-09-16T05:59:02.190Z,27.33
2022-09-16T06:01:34.692Z,27.39
2022-09-16T06:04:04.105Z,27.20
2022-09-16T06:06:41.902Z,27.08
2022-09-16T06:09:12.655Z,27.23
2022-09-16T06:11:44.830Z,27.23
2022-09-16T06:14:13.249Z,26.99
2022-09-16T06:16:40.860Z,27.00
2022-09-16T06:19:13.077Z,27.12
2022-09-16T06:21:40.539Z,27.01
2022-09-16T06:24:10.762Z,27.22
2022-09-16T06:26:40.239Z,27.35
2022-09-16T06:29:07.756Z,27.38
2022-09-16T06:31:36.296Z,27.43
2022-09-16T06:34:04.043Z,27.68
2022-09-16T06:36:34.006Z,27.53
2022-09-16T06:39:01.000Z,27.73
2022-09-16T06:41:27.987Z,27.99
2022-09-16T06:43:54.907Z,28.17
2022-09-16T06:46:24.704Z,28.40
2022-09-16T06:48:58.653Z,28.34
2022-09-16T06:51:29.791Z,28.48
2022-09-16T06:54:01.365Z,28.37
2022-09-16T06:56:28.482Z,28.42
2022-09-16T06:58:55.989Z,28.53
2022-09-16T07:01:29.046Z,28.66
2022-09-16T07:03:58.440Z,28.82
2022-09-16T07:06:57.462Z,28.89
2022-09-16T07:09:17.141Z,28.94
2022-09-16T07:11:44.485Z,29.09
2022-09-16T07:14:11.487Z,29.23
2022-09-16T07:16:38.475Z,29.35
2022-09-16T07:19:06.085Z,29.33
2022-09-16T07:21:33.042Z,29.32
2022-09-16T07:24:02.666Z,29.36
2022-09-16T07:26:35.311Z,29.23
2022-09-16T07:29:04.392Z,29.37
2022-09-16T07:31:33.695Z,29.57
2022-09-16T07:34:04.389Z,29.63
2022-09-16T07:36:37.679Z,29.74
2022-09-16T07:39:05.287Z,29.61
2022-09-16T07:41:37.556Z,29.84
2022-09-16T07:44:06.162Z,29.83
2022-09-16T07:46:35.028Z,30.03
2022-09-16T07:49:03.780Z,30.12
2022-09-16T07:51:31.491Z,30.22
2022-09-16T07:54:03.687Z,30.35
2022-09-16T07:56:34.613Z,30.33
2022-09-16T07:59:03.042Z,30.34
2022-09-16T08:01:31.414Z,30.36
2022-09-16T08:03:59.658Z,30.35
2022-09-16T08:06:29.675Z,30.38
2022-09-16T08:09:10.189Z,30.51
2022-09-16T08:11:42.512Z,30.64
2022-09-16T08:14:09.451Z,30.63
2022-09-16T08:16:36.333Z,30.70
2022-09-16T08:19:03.645Z,30.73
2022-09-16T08:21:31.194Z,30.27
2022-09-16T08:23:58.414Z,30.44
2022-09-16T08:26:26.167Z,30.08
2022-09-16T08:29:10.144Z,29.94
2022-09-16T08:31:38.610Z,30.19
2022-09-16T08:34:05.700Z,29.70
2022-09-16T08:36:33.950Z,29.72
2022-09-16T08:39:01.505Z,29.81
2022-09-16T08:42:00.378Z,29.90
2022-09-16T08:45:01.062Z,29.97
2022-09-16T08:47:37.279Z,30.18
2022-09-16T08:50:11.403Z,30.42
2022-09-16T08:52:41.064Z,30.51
2022-09-16T08:55:39.586Z,30.51
2022-09-16T08:58:12.642Z,30.39
2022-09-16T09:00:41.372Z,30.45
2022-09-16T09:03:36.296Z,30.78
2022-09-16T09:06:14.537Z,30.51
2022-09-16T09:09:06.002Z,30.86
2022-09-16T09:11:44.912Z,31.00
2022-09-16T09:14:20.677Z,31.12
2022-09-16T09:17:26.042Z,31.14
2022-09-16T09:20:13.969Z,31.00
2022-09-16T09:22:45.883Z,30.60
2022-09-16T09:25:25.206Z,30.77
2022-09-16T09:28:23.597Z,31.03
2022-09-16T09:31:10.570Z,31.27
2022-09-16T09:33:56.094Z,31.35
2022-09-16T09:36:58.424Z,31.53
2022-09-16T09:39:58.148Z,31.27
2022-09-16T09:42:30.737Z,31.49
2022-09-16T10:16:52.386Z,30.78
2022-09-16T10:19:25.718Z,30.97
2022-09-16T10:22:09.119Z,31.37
2022-09-16T10:24:39.174Z,31.27
2022-09-16T10:27:22.138Z,31.45
2022-09-16T10:30:28.959Z,31.63
2022-09-16T10:33:02.492Z,31.57
2022-09-16T10:35:38.168Z,31.60
2022-09-16T10:38:19.053Z,31.66
2022-09-16T10:40:58.106Z,31.53
2022-09-16T10:43:26.479Z,31.69
2022-09-16T10:45:54.916Z,31.87
2022-09-16T10:48:28.358Z,31.89
2022-09-16T10:51:04.060Z,31.72
2022-09-16T10:53:45.214Z,31.87
2022-09-16T10:56:22.886Z,32.07
2022-09-16T10:58:50.438Z,32.14
2022-09-16T11:01:18.599Z,32.23
2022-09-16T11:04:00.940Z,32.17
2022-09-16T11:06:54.689Z,32.31
2022-09-16T11:09:40.136Z,32.23
2022-09-16T11:12:35.610Z,32.37
2022-09-16T11:15:34.623Z,32.41
2022-09-16T11:18:13.560Z,32.48
2022-09-16T11:21:02.143Z,32.60
2022-09-16T11:23:53.786Z,32.53
2022-09-16T11:26:23.657Z,32.64
2022-09-16T11:28:59.408Z,32.75
2022-09-16T11:31:44.968Z,32.81
2022-09-16T11:34:33.359Z,32.78
2022-09-16T11:37:21.196Z,32.57
2022-09-16T11:40:09.902Z,32.47
2022-09-16T11:43:15.591Z,32.32
2022-09-16T11:45:58.901Z,32.40
2022-09-16T11:48:35.408Z,32.35
2022-09-16T11:51:43.754Z,32.47
2022-09-16T11:54:19.320Z,32.23
2022-09-16T11:57:02.842Z,32.35
2022-09-16T11:59:45.236Z,32.47
2022-09-16T12:02:24.488Z,32.45
2022-09-16T12:04:56.226Z,32.57
2022-09-16T12:07:38.088Z,32.38
2022-09-16T12:10:32.469Z,32.58
2022-09-16T12:13:05.957Z,32.49
2022-09-16T12:15:40.502Z,32.39
2022-09-16T12:18:19.404Z,32.37
2022-09-16T12:21:06.113Z,32.35
2022-09-16T12:23:39.379Z,31.37
2022-09-16T12:26:09.619Z,31.29
2022-09-16T12:28:44.213Z,31.53
2022-09-16T12:31:23.931Z,31.76
2022-09-16T12:34:04.695Z,31.98
2022-09-16T12:36:36.839Z,31.97
2022-09-16T12:39:04.094Z,31.75
2022-09-16T12:42:08.962Z,31.90
2022-09-16T12:44:59.215Z,32.08
2022-09-16T12:47:40.376Z,32.17
2022-09-16T12:50:37.477Z,32.02
2022-09-16T12:53:10.266Z,32.10
2022-09-16T12:55:55.375Z,31.98
2022-09-16T12:58:49.691Z,31.77
2022-09-16T13:01:30.312Z,31.42
2022-09-16T13:04:11.009Z,31.01
2022-09-16T13:06:45.199Z,31.14
2022-09-16T13:09:25.708Z,31.24
2022-09-16T13:14:54.636Z,31.48
2022-09-16T13:17:52.845Z,31.32
2022-09-16T13:20:28.429Z,31.30
2022-09-16T13:22:55.357Z,30.97
2022-09-16T13:25:26.758Z,30.94
2022-09-16T13:28:19.729Z,30.97
2022-09-16T13:30:46.910Z,31.10
2022-09-16T13:33:13.817Z,30.90
2022-09-16T13:35:49.935Z,30.89
2022-09-16T13:38:19.629Z,30.83
2022-09-16T13:41:02.509Z,30.75
2022-09-16T13:43:57.488Z,31.00
2022-09-16T13:46:33.757Z,30.71
2022-09-16T13:49:04.188Z,30.52
2022-09-16T13:51:36.202Z,30.57
2022-09-16T13:54:04.792Z,30.32
2022-09-16T13:57:22.772Z,30.40
2022-09-16T14:00:10.941Z,30.50
2022-09-16T14:02:56.804Z,30.22
2022-09-16T14:06:00.487Z,30.38
2022-09-16T14:09:11.896Z,30.04
2022-09-16T14:12:04.467Z,30.20
2022-09-16T14:14:50.348Z,29.96
2022-09-16T14:17:22.787Z,29.58
2022-09-16T14:19:54.329Z,29.54
2022-09-16T14:22:23.227Z,29.28
2022-09-16T14:24:56.640Z,29.16
2022-09-16T14:27:39.815Z,29.19
2022-09-16T14:30:15.357Z,28.95
2022-09-16T14:32:42.801Z,28.81
2022-09-16T14:35:16.465Z,28.75
2022-09-16T14:37:46.995Z,28.62
2022-09-16T14:40:16.887Z,28.53
2022-09-16T14:42:58.483Z,28.48
2022-09-16T14:45:25.560Z,28.39
2022-09-16T14:47:55.710Z,28.42
2022-09-16T14:50:32.431Z,28.43
2022-09-16T14:53:02.073Z,28.43
2022-09-16T14:55:31.415Z,28.34
2022-09-16T14:58:00.044Z,28.23
2022-09-16T15:00:45.429Z,28.15
2022-09-16T15:03:18.363Z,28.04
2022-09-16T15:05:47.471Z,28.02
2022-09-16T15:08:30.566Z,28.03
2022-09-16T15:11:01.810Z,28.13
2022-09-16T15:13:34.963Z,28.20
2022-09-16T15:16:04.458Z,26.93
2022-09-16T15:18:34.336Z,25.04
2022-09-16T15:21:07.709Z,24.30
2022-09-16T15:23:37.465Z,22.72
2022-09-16T15:26:18.034Z,22.06
2022-09-16T15:28:54.487Z,21.73
2022-09-16T15:31:32.807Z,21.65
2022-09-16T15:34:02.402Z,21.46
2022-09-16T15:36:41.357Z,21.47
2022-09-16T15:39:35.770Z,21.45
2022-09-16T15:42:25.779Z,21.55
2022-09-16T15:45:00.348Z,21.93
2022-09-16T15:47:32.110Z,22.15
2022-09-16T15:50:04.666Z,22.47
2022-09-16T15:52:35.717Z,22.61
2022-09-16T15:55:06.585Z,22.67
2022-09-16T15:57:39.870Z,22.79
2022-09-16T16:00:14.021Z,22.96
2022-09-16T16:02:44.717Z,22.99
2022-09-16T16:05:19.876Z,22.64
2022-09-16T16:07:53.125Z,22.54
2022-09-16T16:10:21.804Z,22.63
2022-09-16T16:12:50.359Z,22.81
2022-09-16T16:15:21.073Z,22.92
2022-09-16T16:17:49.833Z,22.99
2022-09-16T16:20:18.190Z,23.04
2022-09-16T16:22:45.798Z,23.06
2022-09-16T16:25:13.976Z,23.01
2022-09-16T16:27:41.154Z,22.93
2022-09-16T16:30:09.218Z,23.05
2022-09-16T16:32:38.641Z,23.04
2022-09-16T16:35:06.155Z,23.07
2022-09-16T16:37:45.946Z,23.11
2022-09-16T16:40:15.079Z,23.11
2022-09-16T16:42:43.883Z,23.10
2022-09-16T16:45:14.465Z,23.23
2022-09-16T16:47:42.321Z,23.27
2022-09-16T16:50:10.069Z,23.25
2022-09-16T16:52:37.371Z,23.15
2022-09-16T16:55:05.206Z,23.06
2022-09-16T16:57:32.241Z,22.92
2022-09-16T16:59:59.170Z,22.86
2022-09-16T17:02:26.457Z,22.79
2022-09-16T17:04:53.505Z,22.74
2022-09-16T17:07:28.192Z,22.70
2022-09-16T17:09:57.598Z,22.64
2022-09-16T17:12:25.245Z,22.63
2022-09-16T17:14:52.511Z,22.72
2022-09-16T17:17:19.473Z,22.42
2022-09-16T17:19:46.615Z,22.21
2022-09-16T17:22:13.579Z,22.02
2022-09-16T17:24:40.815Z,21.94
2022-09-16T17:27:07.798Z,22.05
2022-09-16T17:29:34.822Z,22.33
2022-09-16T17:32:03.393Z,22.64
2022-09-16T17:34:31.172Z,22.69
2022-09-16T17:36:58.511Z,22.70
2022-09-16T17:39:26.080Z,22.90
2022-09-16T17:41:56.793Z,22.97
2022-09-16T17:44:24.744Z,23.05
2022-09-16T17:46:51.977Z,23.13
2022-09-16T17:49:23.995Z,23.10
2022-09-16T17:51:53.560Z,23.13
2022-09-16T17:54:21.286Z,22.69
2022-09-16T17:56:48.764Z,22.87
2022-09-16T17:59:17.799Z,22.96
2022-09-16T18:01:45.652Z,23.05
2022-09-16T18:04:13.353Z,23.03
2022-09-16T18:06:45.902Z,22.96
2022-09-16T18:09:14.191Z,22.71
2022-09-16T18:11:41.188Z,22.70
2022-09-16T18:14:12.227Z,22.88
2022-09-16T18:16:40.181Z,22.99
2022-09-16T18:19:07.467Z,23.05
2022-09-16T18:21:35.116Z,23.03
2022-09-16T18:24:03.451Z,23.11
2022-09-16T18:26:31.941Z,23.27
2022-09-16T18:29:10.810Z,23.36
2022-09-16T18:31:44.696Z,23.41
2022-09-16T18:34:12.894Z,23.36
2022-09-16T18:36:40.529Z,23.37
2022-09-16T18:39:11.076Z,23.38
2022-09-16T18:41:39.914Z,23.45
2022-09-16T18:44:12.543Z,23.58
2022-09-16T18:46:39.871Z,23.56
2022-09-16T18:49:07.276Z,23.64
2022-09-16T18:51:40.693Z,23.68
2022-09-16T18:54:11.846Z,23.65
2022-09-16T18:56:40.179Z,23.71
2022-09-16T18:59:22.594Z,23.80
2022-09-16T19:01:53.166Z,23.81
2022-09-16T19:04:23.032Z,23.89
2022-09-16T19:06:52.541Z,23.76
2022-09-16T19:09:22.132Z,23.82
2022-09-16T19:11:49.666Z,23.63
2022-09-16T19:14:16.746Z,23.61
2022-09-16T19:16:45.751Z,23.81
2022-09-16T19:19:14.808Z,23.74
2022-09-16T19:21:43.246Z,23.80
2022-09-16T19:24:15.970Z,23.91
2022-09-16T19:26:44.356Z,23.85
2022-09-16T19:29:12.779Z,23.88
2022-09-16T19:31:41.327Z,23.98
2022-09-16T19:34:08.485Z,24.09
2022-09-16T19:36:36.378Z,24.14
2022-09-16T19:39:05.387Z,24.11
2022-09-16T19:41:34.528Z,23.94
2022-09-16T19:44:03.819Z,23.87
2022-09-16T19:46:35.024Z,24.03
2022-09-16T19:49:02.620Z,24.01
2022-09-16T19:51:29.517Z,23.89
2022-09-16T19:53:58.454Z,23.98
2022-09-16T19:56:27.658Z,23.97
2022-09-16T19:58:55.127Z,23.99
2022-09-16T20:01:27.503Z,24.02
2022-09-16T20:03:55.059Z,24.08
2022-09-16T20:06:31.932Z,24.18
2022-09-16T20:09:00.442Z,24.10
2022-09-16T20:11:30.025Z,24.16
2022-09-16T20:14:02.546Z,24.16
2022-09-16T20:16:35.661Z,24.21
2022-09-16T20:19:09.041Z,24.18
2022-09-16T20:21:36.994Z,24.08
2022-09-16T20:24:06.323Z,24.13
2022-09-16T20:26:34.572Z,23.99
2022-09-16T20:29:02.116Z,24.05
2022-09-16T20:31:31.788Z,23.83
2022-09-16T20:33:59.265Z,23.71
2022-09-16T20:36:27.951Z,23.59
2022-09-16T20:38:54.819Z,23.30
2022-09-16T20:41:24.132Z,23.05
2022-09-16T20:43:52.268Z,22.66
2022-09-16T20:46:30.565Z,22.47
2022-09-16T20:49:00.658Z,22.49
2022-09-16T20:51:31.574Z,22.29
2022-09-16T20:54:07.456Z,21.75
2022-09-16T20:56:38.682Z,21.58
2022-09-16T20:59:10.072Z,21.50
2022-09-16T21:01:38.437Z,21.42
2022-09-16T21:04:08.338Z,21.38
2022-09-16T21:06:36.566Z,21.28
2022-09-16T21:09:06.894Z,21.35
2022-09-16T21:11:33.879Z,21.33
2022-09-16T21:14:08.954Z,21.39
2022-09-16T21:16:37.780Z,21.42
2022-09-16T21:19:09.543Z,21.57
2022-09-16T21:21:38.803Z,21.72
2022-09-16T21:24:07.371Z,21.77
2022-09-16T21:26:36.391Z,22.00
2022-09-16T21:29:08.755Z,21.97
2022-09-16T21:31:38.285Z,22.12
2022-09-16T21:34:06.707Z,22.15
2022-09-16T21:36:35.478Z,22.32
2022-09-16T21:39:02.597Z,22.38
2022-09-16T21:41:29.749Z,22.24
2022-09-16T21:43:57.816Z,22.29
2022-09-16T21:46:31.896Z,22.39
2022-09-16T21:49:02.241Z,22.49
2022-09-16T21:51:36.644Z,22.62
2022-09-16T21:54:08.806Z,22.67
2022-09-16T21:56:40.645Z,22.59
2022-09-16T21:59:08.874Z,22.59
2022-09-16T22:01:37.492Z,22.61
2022-09-16T22:04:16.282Z,22.67
2022-09-16T22:06:44.328Z,22.66
2022-09-16T22:09:11.981Z,22.68
2022-09-16T22:11:43.704Z,22.70
2022-09-16T22:14:13.700Z,22.69
2022-09-16T22:16:41.542Z,22.84
2022-09-16T22:19:11.719Z,22.87
2022-09-16T22:21:43.107Z,22.62
2022-09-16T22:24:10.860Z,22.54
2022-09-16T22:26:38.857Z,22.57
2022-09-16T22:29:06.589Z,22.39
2022-09-16T22:31:34.176Z,22.42
2022-09-16T22:34:02.185Z,22.28
2022-09-16T22:36:34.074Z,22.47
2022-09-16T22:39:18.394Z,22.46
2022-09-16T22:41:45.879Z,22.24
2022-09-16T22:44:13.630Z,22.15
2022-09-16T22:46:43.636Z,22.15
2022-09-16T22:49:12.121Z,22.06
2022-09-16T22:51:39.577Z,22.00
2022-09-16T22:54:08.366Z,21.58
2022-09-16T22:56:35.787Z,21.38
2022-09-16T22:59:05.768Z,21.47
2022-09-16T23:01:35.764Z,21.66
2022-09-16T23:04:04.603Z,21.74
2022-09-16T23:06:33.637Z,21.67
2022-09-16T23:09:01.071Z,21.64
2022-09-16T23:11:30.673Z,21.78
2022-09-16T23:13:58.250Z,21.56
2022-09-16T23:16:30.297Z,21.49
2022-09-16T23:19:00.497Z,21.57
2022-09-16T23:21:28.154Z,21.68
2022-09-16T23:23:57.216Z,21.66
2022-09-16T23:26:26.920Z,21.46
2022-09-16T23:28:55.617Z,21.14
2022-09-16T23:31:25.075Z,21.31
2022-09-16T23:33:53.682Z,21.39
2022-09-16T23:36:21.483Z,21.56
2022-09-16T23:38:48.599Z,21.48
2022-09-16T23:41:26.718Z,21.06
2022-09-16T23:43:54.840Z,20.82
2022-09-16T23:46:23.759Z,20.83
2022-09-16T23:48:54.003Z,20.76
2022-09-16T23:51:25.983Z,20.73
2022-09-16T23:53:55.646Z,20.63
2022-09-16T23:56:22.730Z,20.84
2022-09-16T23:58:51.145Z,20.88
